Terminal Aerodrome Forecast
Issued by NWS Twin Cities, MN

Home | Current Version | Previous Version | Graphics & Text | Print | Product List | Glossary On
Versions: 1 2 3 4 5 6 7 8 9 10 11 12 13 14 15 16
912
FTUS43 KMPX 201120
TAFEAU
TAF
KEAU 201120Z 2012/2112 15004KT P6SM SCT100 BKN250
     FM201800 22008KT P6SM SCT050 BKN100
     FM202200 29005KT P6SM VCSH SCT050 BKN150
     FM210500 35004KT P6SM BKN100=

USA.gov is the U.S. government's official web portal to all federal, state and local government web resources and services.